sensor_id;sensor_type;location;lat;lon;timestamp;pressure;altitude;pressure_sealevel;temperature;humidity
29121;BME280;16191;49.548;8.658;2024-01-30T00:01:55;101753.06;;;4.18;100.00
29121;BME280;16191;49.548;8.658;2024-01-30T00:04:22;101756.50;;;4.18;100.00
29121;BME280;16191;49.548;8.658;2024-01-30T00:06:50;101757.38;;;4.19;100.00
29121;BME280;16191;49.548;8.658;2024-01-30T00:09:17;101757.31;;;4.12;100.00
29121;BME280;16191;49.548;8.658;2024-01-30T00:11:44;101752.97;;;4.07;100.00
29121;BME280;16191;49.548;8.658;2024-01-30T00:14:10;101763.25;;;4.02;100.00
29121;BME280;16191;49.548;8.658;2024-01-30T00:16:37;101760.69;;;4.04;100.00
29121;BME280;16191;49.548;8.658;2024-01-30T00:19:04;101754.63;;;4.00;100.00
29121;BME280;16191;49.548;8.658;2024-01-30T00:21:31;101752.91;;;4.02;100.00
29121;BME280;16191;49.548;8.658;2024-01-30T00:23:58;101756.44;;;4.07;100.00
29121;BME280;16191;49.548;8.658;2024-01-30T00:26:24;101758.97;;;4.04;100.00
29121;BME280;16191;49.548;8.658;2024-01-30T00:28:51;101763.28;;;4.05;100.00
29121;BME280;16191;49.548;8.658;2024-01-30T00:31:18;101759.75;;;3.97;100.00
29121;BME280;16191;49.548;8.658;2024-01-30T00:33:45;101763.13;;;3.92;100.00
29121;BME280;16191;49.548;8.658;2024-01-30T00:36:12;101763.16;;;3.93;100.00
29121;BME280;16191;49.548;8.658;2024-01-30T00:38:38;101758.91;;;3.98;100.00
29121;BME280;16191;49.548;8.658;2024-01-30T00:41:05;101767.44;;;3.93;100.00
29121;BME280;16191;49.548;8.658;2024-01-30T00:43:32;101763.19;;;3.96;100.00
29121;BME280;16191;49.548;8.658;2024-01-30T00:45:59;101758.88;;;3.97;100.00
29121;BME280;16191;49.548;8.658;2024-01-30T00:48:25;101757.97;;;3.93;100.00
29121;BME280;16191;49.548;8.658;2024-01-30T00:50:52;101759.69;;;3.93;100.00
29121;BME280;16191;49.548;8.658;2024-01-30T00:53:19;101760.53;;;3.90;100.00
29121;BME280;16191;49.548;8.658;2024-01-30T00:55:46;101763.97;;;3.91;100.00
29121;BME280;16191;49.548;8.658;2024-01-30T00:58:13;101761.41;;;3.91;100.00
29121;BME280;16191;49.548;8.658;2024-01-30T01:00:39;101751.97;;;3.96;100.00
29121;BME280;16191;49.548;8.658;2024-01-30T01:03:06;101755.34;;;3.87;100.00
29121;BME280;16191;49.548;8.658;2024-01-30T01:05:33;101760.59;;;3.95;100.00
29121;BME280;16191;49.548;8.658;2024-01-30T01:07:59;101754.50;;;3.91;100.00
29121;BME280;16191;49.548;8.658;2024-01-30T01:10:26;101756.34;;;4.01;100.00
29121;BME280;16191;49.548;8.658;2024-01-30T01:12:54;101756.31;;;3.98;100.00
29121;BME280;16191;49.548;8.658;2024-01-30T01:15:21;101753.69;;;3.95;100.00
29121;BME280;16191;49.548;8.658;2024-01-30T01:17:48;101755.31;;;3.83;100.00
29121;BME280;16191;49.548;8.658;2024-01-30T01:20:15;101757.94;;;3.87;100.00
29121;BME280;16191;49.548;8.658;2024-01-30T01:22:42;101756.03;;;3.72;100.00
29121;BME280;16191;49.548;8.658;2024-01-30T01:25:08;101756.91;;;3.73;100.00
29121;BME280;16191;49.548;8.658;2024-01-30T01:27:36;101755.84;;;3.56;100.00
29121;BME280;16191;49.548;8.658;2024-01-30T01:30:09;101759.16;;;3.47;100.00
29121;BME280;16191;49.548;8.658;2024-01-30T01:32:36;101753.19;;;3.51;100.00
29121;BME280;16191;49.548;8.658;2024-01-30T01:35:05;101765.47;;;3.67;100.00
29121;BME280;16191;49.548;8.658;2024-01-30T01:37:34;101764.59;;;3.68;100.00
29121;BME280;16191;49.548;8.658;2024-01-30T01:40:01;101753.44;;;3.71;100.00
29121;BME280;16191;49.548;8.658;2024-01-30T01:42:28;101756.78;;;3.62;100.00
29121;BME280;16191;49.548;8.658;2024-01-30T01:44:54;101753.38;;;3.63;100.00
29121;BME280;16191;49.548;8.658;2024-01-30T01:47:22;101755.78;;;3.51;100.00
29121;BME280;16191;49.548;8.658;2024-01-30T01:49:49;101748.94;;;3.55;100.00
29121;BME280;16191;49.548;8.658;2024-01-30T01:52:16;101751.56;;;3.58;100.00
29121;BME280;16191;49.548;8.658;2024-01-30T01:54:43;101741.13;;;3.46;100.00
29121;BME280;16191;49.548;8.658;2024-01-30T01:57:10;101743.72;;;3.49;100.00
29121;BME280;16191;49.548;8.658;2024-01-30T01:59:37;101736.84;;;3.49;100.00
29121;BME280;16191;49.548;8.658;2024-01-30T02:02:05;101738.63;;;3.55;100.00
29121;BME280;16191;49.548;8.658;2024-01-30T02:04:34;101746.31;;;3.50;100.00
29121;BME280;16191;49.548;8.658;2024-01-30T02:07:01;101735.97;;;3.46;100.00
29121;BME280;16191;49.548;8.658;2024-01-30T02:09:28;101729.91;;;3.47;100.00
29121;BME280;16191;49.548;8.658;2024-01-30T02:11:55;101741.97;;;3.44;100.00
29121;BME280;16191;49.548;8.658;2024-01-30T02:14:21;101741.09;;;3.44;100.00
29121;BME280;16191;49.548;8.658;2024-01-30T02:16:48;101734.97;;;3.36;100.00
29121;BME280;16191;49.548;8.658;2024-01-30T02:19:15;101737.41;;;3.27;100.00
29121;BME280;16191;49.548;8.658;2024-01-30T02:21:42;101733.94;;;3.22;100.00
29121;BME280;16191;49.548;8.658;2024-01-30T02:24:08;101733.91;;;3.20;100.00
29121;BME280;16191;49.548;8.658;2024-01-30T02:26:35;101734.75;;;3.18;100.00
29121;BME280;16191;49.548;8.658;2024-01-30T02:29:01;101739.97;;;3.25;100.00
29121;BME280;16191;49.548;8.658;2024-01-30T02:31:28;101745.13;;;3.22;100.00
29121;BME280;16191;49.548;8.658;2024-01-30T02:33:55;101737.41;;;3.25;100.00
29121;BME280;16191;49.548;8.658;2024-01-30T02:36:22;101738.22;;;3.21;100.00
29121;BME280;16191;49.548;8.658;2024-01-30T02:38:48;101732.94;;;3.12;100.00
29121;BME280;16191;49.548;8.658;2024-01-30T02:41:35;101732.94;;;3.12;100.00
29121;BME280;16191;49.548;8.658;2024-01-30T02:44:22;101736.44;;;3.16;100.00
29121;BME280;16191;49.548;8.658;2024-01-30T02:47:09;101737.34;;;3.19;100.00
29121;BME280;16191;49.548;8.658;2024-01-30T02:49:56;101744.06;;;3.09;100.00
29121;BME280;16191;49.548;8.658;2024-01-30T02:52:43;101745.00;;;3.15;100.00
29121;BME280;16191;49.548;8.658;2024-01-30T02:55:33;101747.56;;;3.13;100.00
29121;BME280;16191;49.548;8.658;2024-01-30T02:57:59;101747.53;;;3.10;100.00
29121;BME280;16191;49.548;8.658;2024-01-30T03:00:27;101744.09;;;3.11;100.00
29121;BME280;16191;49.548;8.658;2024-01-30T03:02:53;101744.03;;;3.06;100.00
29121;BME280;16191;49.548;8.658;2024-01-30T03:05:20;101742.34;;;3.08;100.00
29121;BME280;16191;49.548;8.658;2024-01-30T03:07:47;101739.75;;;3.08;100.00
29121;BME280;16191;49.548;8.658;2024-01-30T03:10:13;101733.63;;;2.99;100.00
29121;BME280;16191;49.548;8.658;2024-01-30T03:12:40;101737.94;;;3.00;100.00
29121;BME280;16191;49.548;8.658;2024-01-30T03:15:07;101736.25;;;3.03;100.00
29121;BME280;16191;49.548;8.658;2024-01-30T03:17:36;101733.69;;;3.05;100.00
29121;BME280;16191;49.548;8.658;2024-01-30T03:20:04;101740.53;;;3.00;100.00
29121;BME280;16191;49.548;8.658;2024-01-30T03:22:32;101732.81;;;3.04;100.00
29121;BME280;16191;49.548;8.658;2024-01-30T03:24:59;101731.91;;;2.98;100.00
29121;BME280;16191;49.548;8.658;2024-01-30T03:27:26;101739.63;;;2.98;100.00
29121;BME280;16191;49.548;8.658;2024-01-30T03:29:53;101733.53;;;2.93;100.00
29121;BME280;16191;49.548;8.658;2024-01-30T03:32:19;101737.91;;;2.97;100.00
29121;BME280;16191;49.548;8.658;2024-01-30T03:34:46;101732.56;;;2.86;100.00
29121;BME280;16191;49.548;8.658;2024-01-30T03:37:13;101733.56;;;2.94;100.00
29121;BME280;16191;49.548;8.658;2024-01-30T03:39:40;101730.97;;;2.94;100.00
29121;BME280;16191;49.548;8.658;2024-01-30T03:42:07;101736.03;;;2.87;100.00
29121;BME280;16191;49.548;8.658;2024-01-30T03:44:33;101736.00;;;2.85;100.00
29121;BME280;16191;49.548;8.658;2024-01-30T03:47:00;101743.69;;;2.84;100.00
29121;BME280;16191;49.548;8.658;2024-01-30T03:49:27;101731.66;;;2.83;100.00
29121;BME280;16191;49.548;8.658;2024-01-30T03:51:53;101734.38;;;2.92;100.00
29121;BME280;16191;49.548;8.658;2024-01-30T03:54:20;101730.97;;;2.93;100.00
29121;BME280;16191;49.548;8.658;2024-01-30T03:56:47;101735.16;;;2.86;100.00
29121;BME280;16191;49.548;8.658;2024-01-30T03:59:13;101728.34;;;2.90;100.00
29121;BME280;16191;49.548;8.658;2024-01-30T04:01:40;101732.53;;;2.85;100.00
29121;BME280;16191;49.548;8.658;2024-01-30T04:04:07;101730.78;;;2.82;100.00
29121;BME280;16191;49.548;8.658;2024-01-30T04:06:34;101723.09;;;2.85;100.00
29121;BME280;16191;49.548;8.658;2024-01-30T04:09:01;101727.38;;;2.85;100.00
29121;BME280;16191;49.548;8.658;2024-01-30T04:11:30;101721.50;;;2.92;100.00
29121;BME280;16191;49.548;8.658;2024-01-30T04:13:56;101723.13;;;2.87;100.00
29121;BME280;16191;49.548;8.658;2024-01-30T04:16:23;101721.44;;;2.89;100.00
29121;BME280;16191;49.548;8.658;2024-01-30T04:18:51;101724.78;;;2.83;100.00
29121;BME280;16191;49.548;8.658;2024-01-30T04:21:20;101719.72;;;2.89;100.00
29121;BME280;16191;49.548;8.658;2024-01-30T04:23:47;101728.25;;;2.85;100.00
29121;BME280;16191;49.548;8.658;2024-01-30T04:26:14;101723.06;;;2.81;100.00
29121;BME280;16191;49.548;8.658;2024-01-30T04:28:42;101729.16;;;2.87;100.00
29121;BME280;16191;49.548;8.658;2024-01-30T04:31:08;101721.41;;;2.87;100.00
29121;BME280;16191;49.548;8.658;2024-01-30T04:33:35;101725.63;;;2.82;100.00
29121;BME280;16191;49.548;8.658;2024-01-30T04:36:03;101724.75;;;2.82;100.00
29121;BME280;16191;49.548;8.658;2024-01-30T04:38:31;101730.78;;;2.81;100.00
29121;BME280;16191;49.548;8.658;2024-01-30T04:40:58;101726.47;;;2.80;100.00
29121;BME280;16191;49.548;8.658;2024-01-30T04:43:24;101729.94;;;2.83;100.00
29121;BME280;16191;49.548;8.658;2024-01-30T04:45:52;101722.22;;;2.83;100.00
29121;BME280;16191;49.548;8.658;2024-01-30T04:48:19;101726.56;;;2.87;100.00
29121;BME280;16191;49.548;8.658;2024-01-30T04:50:46;101727.50;;;2.92;100.00
29121;BME280;16191;49.548;8.658;2024-01-30T04:53:13;101731.06;;;2.99;100.00
29121;BME280;16191;49.548;8.658;2024-01-30T04:55:40;101727.53;;;2.94;100.00
29121;BME280;16191;49.548;8.658;2024-01-30T04:58:07;101729.31;;;2.98;100.00
29121;BME280;16191;49.548;8.658;2024-01-30T05:00:34;101730.25;;;3.04;100.00
29121;BME280;16191;49.548;8.658;2024-01-30T05:03:01;101737.13;;;3.04;100.00
29121;BME280;16191;49.548;8.658;2024-01-30T05:05:27;101736.25;;;3.02;100.00
29121;BME280;16191;49.548;8.658;2024-01-30T05:07:54;101732.66;;;2.92;100.00
29121;BME280;16191;49.548;8.658;2024-01-30T05:10:21;101731.75;;;2.89;100.00
29121;BME280;16191;49.548;8.658;2024-01-30T05:12:48;101746.44;;;2.93;100.00
29121;BME280;16191;49.548;8.658;2024-01-30T05:15:14;101739.59;;;2.95;100.00
29121;BME280;16191;49.548;8.658;2024-01-30T05:17:41;101741.22;;;2.90;100.00
29121;BME280;16191;49.548;8.658;2024-01-30T05:20:09;101743.81;;;2.91;100.00
29121;BME280;16191;49.548;8.658;2024-01-30T05:22:37;101746.38;;;2.90;100.00
29121;BME280;16191;49.548;8.658;2024-01-30T05:25:04;101744.59;;;2.86;100.00
29121;BME280;16191;49.548;8.658;2024-01-30T05:27:31;101746.28;;;2.84;100.00
29121;BME280;16191;49.548;8.658;2024-01-30T05:29:58;101745.41;;;2.80;100.00
29121;BME280;16191;49.548;8.658;2024-01-30T05:32:25;101739.34;;;2.78;100.00
29121;BME280;16191;49.548;8.658;2024-01-30T05:34:52;101744.50;;;2.78;100.00
29121;BME280;16191;49.548;8.658;2024-01-30T05:37:18;101738.47;;;2.76;100.00
29121;BME280;16191;49.548;8.658;2024-01-30T05:39:45;101747.94;;;2.79;100.00
29121;BME280;16191;49.548;8.658;2024-01-30T05:42:12;101746.13;;;2.73;100.00
29121;BME280;16191;49.548;8.658;2024-01-30T05:44:39;101747.16;;;2.84;100.00
29121;BME280;16191;49.548;8.658;2024-01-30T05:47:06;101744.50;;;2.78;100.00
29121;BME280;16191;49.548;8.658;2024-01-30T05:49:33;101753.16;;;2.83;100.00
29121;BME280;16191;49.548;8.658;2024-01-30T05:51:59;101754.00;;;2.81;100.00
29121;BME280;16191;49.548;8.658;2024-01-30T05:54:26;101748.78;;;2.78;100.00
29121;BME280;16191;49.548;8.658;2024-01-30T05:56:53;101748.78;;;2.78;100.00
29121;BME280;16191;49.548;8.658;2024-01-30T05:59:20;101755.63;;;2.75;100.00
29121;BME280;16191;49.548;8.658;2024-01-30T06:01:47;101746.25;;;2.81;100.00
29121;BME280;16191;49.548;8.658;2024-01-30T06:04:14;101748.75;;;2.76;100.00
29121;BME280;16191;49.548;8.658;2024-01-30T06:06:41;101740.97;;;2.73;100.00
29121;BME280;16191;49.548;8.658;2024-01-30T06:09:08;101750.38;;;2.69;100.00
29121;BME280;16191;49.548;8.658;2024-01-30T06:11:39;101745.22;;;2.69;100.00
29121;BME280;16191;49.548;8.658;2024-01-30T06:14:06;101742.53;;;2.63;100.00
29121;BME280;16191;49.548;8.658;2024-01-30T06:16:32;101745.19;;;2.68;100.00
29121;BME280;16191;49.548;8.658;2024-01-30T06:18:59;101741.81;;;2.70;100.00
29121;BME280;16191;49.548;8.658;2024-01-30T06:21:26;101746.13;;;2.73;100.00
29121;BME280;16191;49.548;8.658;2024-01-30T06:23:53;101751.31;;;2.74;100.00
29121;BME280;16191;49.548;8.658;2024-01-30T06:26:20;101752.13;;;2.72;100.00
29121;BME280;16191;49.548;8.658;2024-01-30T06:28:46;101746.13;;;2.73;100.00
29121;BME280;16191;49.548;8.658;2024-01-30T06:31:13;101748.81;;;2.79;100.00
29121;BME280;16191;49.548;8.658;2024-01-30T06:33:40;101751.41;;;2.81;100.00
29121;BME280;16191;49.548;8.658;2024-01-30T06:36:09;101749.63;;;2.77;100.00
29121;BME280;16191;49.548;8.658;2024-01-30T06:38:35;101753.00;;;2.72;100.00
29121;BME280;16191;49.548;8.658;2024-01-30T06:41:02;101749.53;;;2.70;100.00
29121;BME280;16191;49.548;8.658;2024-01-30T06:43:29;101750.41;;;2.71;100.00
29121;BME280;16191;49.548;8.658;2024-01-30T06:45:56;101754.63;;;2.67;100.00
29121;BME280;16191;49.548;8.658;2024-01-30T06:48:23;101751.31;;;2.74;100.00
29121;BME280;16191;49.548;8.658;2024-01-30T06:50:53;101756.53;;;2.78;100.00
29121;BME280;16191;49.548;8.658;2024-01-30T06:53:20;101757.28;;;2.72;100.00
29121;BME280;16191;49.548;8.658;2024-01-30T06:55:47;101762.41;;;2.69;100.00
29121;BME280;16191;49.548;8.658;2024-01-30T06:58:13;101758.09;;;2.69;100.00
29121;BME280;16191;49.548;8.658;2024-01-30T07:00:40;101752.94;;;2.68;100.00
29121;BME280;16191;49.548;8.658;2024-01-30T07:03:07;101749.41;;;2.63;100.00
29121;BME280;16191;49.548;8.658;2024-01-30T07:05:33;101747.66;;;2.62;100.00
29121;BME280;16191;49.548;8.658;2024-01-30T07:08:00;101749.41;;;2.63;100.00
29121;BME280;16191;49.548;8.658;2024-01-30T07:10:27;101747.78;;;2.68;100.00
29121;BME280;16191;49.548;8.658;2024-01-30T07:12:54;101751.13;;;2.64;100.00
29121;BME280;16191;49.548;8.658;2024-01-30T07:15:20;101750.44;;;2.72;100.00
29121;BME280;16191;49.548;8.658;2024-01-30T07:17:47;101747.88;;;2.74;100.00
29121;BME280;16191;49.548;8.658;2024-01-30T07:20:14;101753.91;;;2.76;100.00
29121;BME280;16191;49.548;8.658;2024-01-30T07:22:43;101750.56;;;2.80;100.00
29121;BME280;16191;49.548;8.658;2024-01-30T07:25:11;101752.34;;;2.87;100.00
29121;BME280;16191;49.548;8.658;2024-01-30T07:27:38;101748.97;;;2.90;100.00
29121;BME280;16191;49.548;8.658;2024-01-30T07:30:05;101753.25;;;2.89;100.00
29121;BME280;16191;49.548;8.658;2024-01-30T07:32:32;101754.09;;;2.88;100.00
29121;BME280;16191;49.548;8.658;2024-01-30T07:34:58;101755.00;;;2.92;100.00
29121;BME280;16191;49.548;8.658;2024-01-30T07:37:34;101757.56;;;2.90;100.00
29121;BME280;16191;49.548;8.658;2024-01-30T07:40:02;101752.47;;;2.95;100.00
29121;BME280;16191;49.548;8.658;2024-01-30T07:42:30;101755.09;;;2.98;100.00
29121;BME280;16191;49.548;8.658;2024-01-30T07:44:57;101757.69;;;2.99;100.00
29121;BME280;16191;49.548;8.658;2024-01-30T07:47:23;101762.03;;;3.03;100.00
29121;BME280;16191;49.548;8.658;2024-01-30T07:49:52;101755.16;;;3.04;100.00
29121;BME280;16191;49.548;8.658;2024-01-30T07:52:21;101758.66;;;3.07;100.00
29121;BME280;16191;49.548;8.658;2024-01-30T07:54:48;101757.06;;;3.16;100.00
29121;BME280;16191;49.548;8.658;2024-01-30T07:57:14;101760.59;;;3.22;100.00
29121;BME280;16191;49.548;8.658;2024-01-30T07:59:44;101767.53;;;3.28;100.00
29121;BME280;16191;49.548;8.658;2024-01-30T08:02:14;101770.13;;;3.29;100.00
29121;BME280;16191;49.548;8.658;2024-01-30T08:04:41;101772.84;;;3.38;100.00
29121;BME280;16191;49.548;8.658;2024-01-30T08:07:08;101773.69;;;3.37;100.00
29121;BME280;16191;49.548;8.658;2024-01-30T08:09:35;101777.19;;;3.42;100.00
29121;BME280;16191;49.548;8.658;2024-01-30T08:12:02;101780.69;;;3.46;100.00
29121;BME280;16191;49.548;8.658;2024-01-30T08:14:29;101787.66;;;3.55;100.00
29121;BME280;16191;49.548;8.658;2024-01-30T08:16:55;101788.56;;;3.57;100.00
29121;BME280;16191;49.548;8.658;2024-01-30T08:19:22;101789.47;;;3.62;100.00
29121;BME280;16191;49.548;8.658;2024-01-30T08:21:49;101794.78;;;3.74;100.00
29121;BME280;16191;49.548;8.658;2024-01-30T08:24:16;101799.91;;;3.71;100.00
29121;BME280;16191;49.548;8.658;2024-01-30T08:26:42;101797.50;;;3.85;100.00
29121;BME280;16191;49.548;8.658;2024-01-30T08:29:09;101799.25;;;3.90;100.00
29121;BME280;16191;49.548;8.658;2024-01-30T08:31:37;101800.31;;;4.04;100.00
29121;BME280;16191;49.548;8.658;2024-01-30T08:34:03;101799.63;;;4.22;100.00
29121;BME280;16191;49.548;8.658;2024-01-30T08:36:30;101800.53;;;4.27;100.00
29121;BME280;16191;49.548;8.658;2024-01-30T08:38:57;101801.63;;;4.51;100.00
29121;BME280;16191;49.548;8.658;2024-01-30T08:41:29;101805.22;;;4.71;100.00
29121;BME280;16191;49.548;8.658;2024-01-30T08:43:56;101796.72;;;4.86;100.00
29121;BME280;16191;49.548;8.658;2024-01-30T08:46:23;101801.97;;;5.01;100.00
29121;BME280;16191;49.548;8.658;2024-01-30T08:48:50;101801.25;;;5.20;100.00
29121;BME280;16191;49.548;8.658;2024-01-30T08:51:17;101794.50;;;5.48;100.00
29121;BME280;16191;49.548;8.658;2024-01-30T08:53:44;101791.13;;;5.63;100.00
29121;BME280;16191;49.548;8.658;2024-01-30T08:56:10;101800.59;;;5.56;100.00
29121;BME280;16191;49.548;8.658;2024-01-30T08:58:37;101799.72;;;5.54;100.00
29121;BME280;16191;49.548;8.658;2024-01-30T09:01:04;101801.53;;;5.78;100.00
29121;BME280;16191;49.548;8.658;2024-01-30T09:03:32;101806.84;;;6.02;100.00
29121;BME280;16191;49.548;8.658;2024-01-30T09:05:59;101795.56;;;5.90;100.00
29121;BME280;16191;49.548;8.658;2024-01-30T09:08:26;101798.16;;;5.94;100.00
29121;BME280;16191;49.548;8.658;2024-01-30T09:10:52;101796.47;;;6.04;100.00
29121;BME280;16191;49.548;8.658;2024-01-30T09:13:19;101803.34;;;5.94;100.00
29121;BME280;16191;49.548;8.658;2024-01-30T09:15:46;101799.09;;;6.22;100.00
29121;BME280;16191;49.548;8.658;2024-01-30T09:18:13;101802.53;;;6.15;100.00
29121;BME280;16191;49.548;8.658;2024-01-30T09:20:39;101804.28;;;6.25;100.00
29121;BME280;16191;49.548;8.658;2024-01-30T09:23:06;101806.91;;;6.45;100.00
29121;BME280;16191;49.548;8.658;2024-01-30T09:25:32;101817.28;;;6.52;100.00
29121;BME280;16191;49.548;8.658;2024-01-30T09:28:01;101809.53;;;6.69;100.00
29121;BME280;16191;49.548;8.658;2024-01-30T09:30:28;101806.91;;;6.60;100.00
29121;BME280;16191;49.548;8.658;2024-01-30T09:32:55;101815.56;;;6.58;100.00
29121;BME280;16191;49.548;8.658;2024-01-30T09:35:22;101812.06;;;6.51;100.00
29121;BME280;16191;49.548;8.658;2024-01-30T09:37:49;101807.78;;;6.47;100.00
29121;BME280;16191;49.548;8.658;2024-01-30T09:40:16;101812.09;;;6.42;100.00
29121;BME280;16191;49.548;8.658;2024-01-30T09:42:50;101815.56;;;6.59;100.00
29121;BME280;16191;49.548;8.658;2024-01-30T09:45:18;101819.00;;;6.84;100.00
29121;BME280;16191;49.548;8.658;2024-01-30T09:47:46;101818.16;;;6.90;100.00
29121;BME280;16191;49.548;8.658;2024-01-30T09:50:14;101816.41;;;7.04;100.00
29121;BME280;16191;49.548;8.658;2024-01-30T09:52:43;101813.84;;;6.88;100.00
29121;BME280;16191;49.548;8.658;2024-01-30T09:55:10;101820.72;;;7.05;100.00
29121;BME280;16191;49.548;8.658;2024-01-30T09:57:37;101824.19;;;7.07;100.00
29121;BME280;16191;49.548;8.658;2024-01-30T10:00:05;101817.25;;;7.13;100.00
29121;BME280;16191;49.548;8.658;2024-01-30T10:02:40;101816.38;;;7.17;100.00
29121;BME280;16191;49.548;8.658;2024-01-30T10:05:08;101818.09;;;7.21;100.00
29121;BME280;16191;49.548;8.658;2024-01-30T10:07:35;101812.84;;;7.38;100.00
29121;BME280;16191;49.548;8.658;2024-01-30T10:10:02;101811.97;;;7.54;100.00
29121;BME280;16191;49.548;8.658;2024-01-30T10:12:29;101808.50;;;7.57;100.00
29121;BME280;16191;49.548;8.658;2024-01-30T10:14:56;101817.09;;;7.62;100.00
29121;BME280;16191;49.548;8.658;2024-01-30T10:17:25;101816.25;;;7.58;100.00
29121;BME280;16191;49.548;8.658;2024-01-30T10:19:59;101811.91;;;7.65;100.00
29121;BME280;16191;49.548;8.658;2024-01-30T10:22:27;101809.22;;;7.80;100.00
29121;BME280;16191;49.548;8.658;2024-01-30T10:24:54;101817.88;;;7.90;100.00
29121;BME280;16191;49.548;8.658;2024-01-30T10:27:27;101823.00;;;8.02;100.00
29121;BME280;16191;49.548;8.658;2024-01-30T10:29:56;101819.56;;;7.99;100.00
29121;BME280;16191;49.548;8.658;2024-01-30T10:32:23;101819.50;;;8.06;100.00
29121;BME280;16191;49.548;8.658;2024-01-30T10:34:50;101820.34;;;8.10;100.00
29121;BME280;16191;49.548;8.658;2024-01-30T10:37:17;101820.31;;;8.17;100.00
29121;BME280;16191;49.548;8.658;2024-01-30T10:39:45;101821.19;;;8.21;100.00
29121;BME280;16191;49.548;8.658;2024-01-30T10:42:17;101815.03;;;8.28;100.00
29121;BME280;16191;49.548;8.658;2024-01-30T10:45:07;101808.13;;;8.27;100.00
29121;BME280;16191;49.548;8.658;2024-01-30T10:47:48;101805.47;;;8.39;100.00
29121;BME280;16191;49.548;8.658;2024-01-30T10:50:16;101808.88;;;8.47;100.00
29121;BME280;16191;49.548;8.658;2024-01-30T10:52:42;101807.13;;;8.46;100.00
29121;BME280;16191;49.548;8.658;2024-01-30T10:55:10;101802.81;;;8.47;100.00
29121;BME280;16191;49.548;8.658;2024-01-30T10:57:38;101806.16;;;8.66;100.00
29121;BME280;16191;49.548;8.658;2024-01-30T11:00:09;101806.22;;;8.55;100.00
29121;BME280;16191;49.548;8.658;2024-01-30T11:02:41;101813.03;;;8.68;100.00
29121;BME280;16191;49.548;8.658;2024-01-30T11:05:09;101799.06;;;8.83;100.00
29121;BME280;16191;49.548;8.658;2024-01-30T11:07:38;101806.09;;;8.72;100.00
29121;BME280;16191;49.548;8.658;2024-01-30T11:10:06;101806.00;;;8.84;100.00
29121;BME280;16191;49.548;8.658;2024-01-30T11:12:39;101797.31;;;8.85;100.00
29121;BME280;16191;49.548;8.658;2024-01-30T11:15:12;101800.72;;;8.88;100.00
29121;BME280;16191;49.548;8.658;2024-01-30T11:17:51;101804.22;;;8.87;100.00
29121;BME280;16191;49.548;8.658;2024-01-30T11:20:25;101802.44;;;8.91;100.00
29121;BME280;16191;49.548;8.658;2024-01-30T11:22:54;101804.13;;;8.97;100.00
29121;BME280;16191;49.548;8.658;2024-01-30T11:25:23;101817.09;;;9.01;100.00
29121;BME280;16191;49.548;8.658;2024-01-30T11:27:52;101820.56;;;9.05;100.00
29121;BME280;16191;49.548;8.658;2024-01-30T11:30:30;101805.84;;;8.99;100.00
29121;BME280;16191;49.548;8.658;2024-01-30T11:33:02;101811.00;;;9.07;100.00
29121;BME280;16191;49.548;8.658;2024-01-30T11:35:32;101794.53;;;9.02;100.00
29121;BME280;16191;49.548;8.658;2024-01-30T11:38:00;101805.72;;;9.11;100.00
29121;BME280;16191;49.548;8.658;2024-01-30T11:40:28;101805.81;;;9.04;100.00
29121;BME280;16191;49.548;8.658;2024-01-30T11:42:58;101797.91;;;9.10;100.00
29121;BME280;16191;49.548;8.658;2024-01-30T11:45:24;101793.50;;;9.16;100.00
29121;BME280;16191;49.548;8.658;2024-01-30T11:47:51;101797.72;;;9.30;100.00
29121;BME280;16191;49.548;8.658;2024-01-30T11:50:19;101795.16;;;9.26;100.00
29121;BME280;16191;49.548;8.658;2024-01-30T11:52:46;101790.81;;;9.25;100.00
29121;BME280;16191;49.548;8.658;2024-01-30T11:55:17;101783.03;;;9.24;100.00
29121;BME280;16191;49.548;8.658;2024-01-30T11:57:45;101777.78;;;9.28;100.00
29121;BME280;16191;49.548;8.658;2024-01-30T12:00:18;101768.22;;;9.27;100.00
29121;BME280;16191;49.548;8.658;2024-01-30T12:02:49;101760.28;;;9.38;100.00
29121;BME280;16191;49.548;8.658;2024-01-30T12:05:19;101767.34;;;9.28;100.00
29121;BME280;16191;49.548;8.658;2024-01-30T12:07:46;101757.72;;;9.34;100.00
29121;BME280;16191;49.548;8.658;2024-01-30T12:10:14;101754.13;;;9.44;100.00
29121;BME280;16191;49.548;8.658;2024-01-30T12:12:48;101743.75;;;9.39;100.00
29121;BME280;16191;49.548;8.658;2024-01-30T12:15:17;101743.66;;;9.48;100.00
29121;BME280;16191;49.548;8.658;2024-01-30T12:17:44;101740.28;;;9.39;100.00
29121;BME280;16191;49.548;8.658;2024-01-30T12:22:40;101733.22;;;9.50;100.00
29121;BME280;16191;49.548;8.658;2024-01-30T12:25:08;101733.31;;;9.42;100.00
29121;BME280;16191;49.548;8.658;2024-01-30T12:27:36;101734.13;;;9.46;100.00
29121;BME280;16191;49.548;8.658;2024-01-30T12:30:11;101740.19;;;9.49;100.00
29121;BME280;16191;49.548;8.658;2024-01-30T12:32:43;101748.78;;;9.54;100.00
29121;BME280;16191;49.548;8.658;2024-01-30T12:35:11;101741.94;;;9.47;100.00
29121;BME280;16191;49.548;8.658;2024-01-30T12:37:39;101746.97;;;9.59;100.00
29121;BME280;16191;49.548;8.658;2024-01-30T12:40:10;101744.38;;;9.59;100.00
29121;BME280;16191;49.548;8.658;2024-01-30T12:42:43;101742.63;;;9.60;100.00
29121;BME280;16191;49.548;8.658;2024-01-30T12:45:16;101739.97;;;9.65;100.00
29121;BME280;16191;49.548;8.658;2024-01-30T12:47:47;101742.59;;;9.63;100.00
29121;BME280;16191;49.548;8.658;2024-01-30T12:50:14;101747.81;;;9.61;100.00
29121;BME280;16191;49.548;8.658;2024-01-30T12:52:43;101744.28;;;9.67;100.00
29121;BME280;16191;49.548;8.658;2024-01-30T12:55:13;101756.44;;;9.68;100.00
29121;BME280;16191;49.548;8.658;2024-01-30T12:57:40;101753.84;;;9.67;100.00